SKW557Y KORD-KMKE
Flight info
| Callsign | SKW557Y |
|---|---|
| Flight time | 0h 20m |
| Altitude | 7000 |
| Route | RAYNR BRTMN TAAYZ |
| Aircraft | E75L/M-SDE3GILORVW/S |
Departure
| Time | 2026-04-24 03:03 |
|---|---|
| Airport | Chicago O'Hare International Airport (KORD) |
Arrival
| Time | 2026-04-24 03:23 |
|---|---|
| Airport | General Mitchell International Airport (KMKE) |
| Time | Latitude | Longitude | Altitude | Speed | Heading |
|---|---|---|---|---|---|
| 2026-04-24 02:37 | 41.97527 | -87.90782 | 667 ft | 0 kts | 167° |
| 2026-04-24 02:52 | 41.97531 | -87.90783 | 667 ft | 3 kts | 167° |
| 2026-04-24 02:52 | 41.97557 | -87.90792 | 667 ft | 3 kts | 165° |
| 2026-04-24 02:52 | 41.97578 | -87.90797 | 667 ft | 4 kts | 191° |
| 2026-04-24 02:52 | 41.97596 | -87.90777 | 667 ft | 3 kts | 249° |
| 2026-04-24 02:53 | 41.97604 | -87.90745 | 667 ft | 4 kts | 250° |
| 2026-04-24 02:53 | 41.97607 | -87.90736 | 667 ft | 0 kts | 250° |
| 2026-04-24 02:55 | 41.97605 | -87.90741 | 667 ft | 2 kts | 249° |
| 2026-04-24 02:55 | 41.97598 | -87.90770 | 667 ft | 5 kts | 251° |
| 2026-04-24 02:55 | 41.97596 | -87.90787 | 667 ft | 2 kts | 271° |
| 2026-04-24 02:56 | 41.97606 | -87.90817 | 667 ft | 6 kts | 307° |
| 2026-04-24 02:56 | 41.97630 | -87.90850 | 662 ft | 4 kts | 313° |
| 2026-04-24 02:56 | 41.97654 | -87.90867 | 667 ft | 5 kts | 355° |
| 2026-04-24 02:56 | 41.97707 | -87.90859 | 667 ft | 9 kts | 9° |
| 2026-04-24 02:57 | 41.97780 | -87.90843 | 667 ft | 12 kts | 10° |
| 2026-04-24 02:57 | 41.97876 | -87.90819 | 667 ft | 15 kts | 10° |
| 2026-04-24 02:57 | 41.97978 | -87.90796 | 667 ft | 12 kts | 8° |
| 2026-04-24 02:57 | 41.98052 | -87.90781 | 667 ft | 11 kts | 9° |
| 2026-04-24 02:58 | 41.98111 | -87.90777 | 667 ft | 9 kts | 355° |
| 2026-04-24 02:58 | 41.98139 | -87.90780 | 667 ft | 4 kts | 354° |
| 2026-04-24 02:58 | 41.98176 | -87.90786 | 667 ft | 7 kts | 354° |
| 2026-04-24 02:58 | 41.98181 | -87.90786 | 667 ft | 0 kts | 354° |
| 2026-04-24 02:59 | 41.98195 | -87.90788 | 666 ft | 6 kts | 354° |
| 2026-04-24 02:59 | 41.98254 | -87.90792 | 666 ft | 9 kts | 18° |
| 2026-04-24 02:59 | 41.98287 | -87.90716 | 666 ft | 11 kts | 84° |
| 2026-04-24 02:59 | 41.98288 | -87.90602 | 665 ft | 14 kts | 90° |
| 2026-04-24 03:00 | 41.98287 | -87.90465 | 666 ft | 16 kts | 90° |
| 2026-04-24 03:00 | 41.98288 | -87.90311 | 666 ft | 17 kts | 87° |
| 2026-04-24 03:00 | 41.98288 | -87.90139 | 667 ft | 19 kts | 91° |
| 2026-04-24 03:00 | 41.98288 | -87.89953 | 668 ft | 21 kts | 90° |
| 2026-04-24 03:01 | 41.98288 | -87.89771 | 668 ft | 17 kts | 89° |
| 2026-04-24 03:01 | 41.98288 | -87.89610 | 667 ft | 18 kts | 90° |
| 2026-04-24 03:01 | 41.98289 | -87.89458 | 668 ft | 13 kts | 86° |
| 2026-04-24 03:01 | 41.98316 | -87.89385 | 668 ft | 7 kts | 356° |
| 2026-04-24 03:02 | 41.98380 | -87.89399 | 668 ft | 5 kts | 314° |
| 2026-04-24 03:02 | 41.98389 | -87.89482 | 669 ft | 13 kts | 268° |
| 2026-04-24 03:02 | 41.98387 | -87.89848 | 669 ft | 79 kts | 270° |
| 2026-04-24 03:02 | 41.98390 | -87.90966 | 684 ft | 155 kts | 267° |
| 2026-04-24 03:03 | 41.98402 | -87.92545 | 1392 ft | 177 kts | 266° |
| 2026-04-24 03:03 | 41.98693 | -87.94165 | 2437 ft | 198 kts | 291° |
| 2026-04-24 03:03 | 41.99833 | -87.95554 | 3054 ft | 244 kts | 332° |
| 2026-04-24 03:03 | 42.01533 | -87.95882 | 4166 ft | 255 kts | 357° |
| 2026-04-24 03:04 | 42.03378 | -87.95910 | 4965 ft | 270 kts | 355° |
| 2026-04-24 03:04 | 42.05322 | -87.95949 | 5119 ft | 288 kts | 356° |
| 2026-04-24 03:04 | 42.07372 | -87.95994 | 5041 ft | 298 kts | 355° |
| 2026-04-24 03:04 | 42.09464 | -87.95732 | 5193 ft | 308 kts | 15° |
| 2026-04-24 03:05 | 42.11457 | -87.94702 | 5714 ft | 308 kts | 24° |
| 2026-04-24 03:05 | 42.13368 | -87.93465 | 6225 ft | 309 kts | 25° |
| 2026-04-24 03:05 | 42.15309 | -87.92215 | 6712 ft | 309 kts | 25° |
| 2026-04-24 03:05 | 42.17268 | -87.90990 | 7019 ft | 313 kts | 24° |
| 2026-04-24 03:06 | 42.19249 | -87.89775 | 6987 ft | 312 kts | 24° |
| 2026-04-24 03:06 | 42.21226 | -87.88570 | 6993 ft | 310 kts | 24° |
| 2026-04-24 03:06 | 42.23185 | -87.87374 | 6985 ft | 309 kts | 24° |
| 2026-04-24 03:06 | 42.25143 | -87.86180 | 6996 ft | 309 kts | 24° |
| 2026-04-24 03:07 | 42.27103 | -87.84981 | 6999 ft | 309 kts | 24° |
| 2026-04-24 03:07 | 42.29061 | -87.83785 | 7000 ft | 309 kts | 24° |
| 2026-04-24 03:07 | 42.31030 | -87.82601 | 6997 ft | 309 kts | 20° |
| 2026-04-24 03:07 | 42.33099 | -87.81916 | 7002 ft | 306 kts | 5° |
| 2026-04-24 03:08 | 42.35193 | -87.81677 | 7002 ft | 305 kts | 0° |
| 2026-04-24 03:08 | 42.39433 | -87.81351 | 7009 ft | 305 kts | 1° |
| 2026-04-24 03:08 | 42.41552 | -87.81153 | 7007 ft | 306 kts | 1° |
| 2026-04-24 03:09 | 42.42963 | -87.81017 | 7004 ft | 305 kts | 1° |
| 2026-04-24 03:09 | 42.45084 | -87.80805 | 7003 ft | 306 kts | 2° |
| 2026-04-24 03:09 | 42.47208 | -87.80609 | 7002 ft | 305 kts | 358° |
| 2026-04-24 03:09 | 42.49329 | -87.80643 | 7004 ft | 304 kts | 354° |
| 2026-04-24 03:10 | 42.51441 | -87.80793 | 7006 ft | 304 kts | 353° |
| 2026-04-24 03:10 | 42.53553 | -87.80955 | 7015 ft | 304 kts | 354° |
| 2026-04-24 03:10 | 42.55668 | -87.81103 | 7017 ft | 304 kts | 354° |
| 2026-04-24 03:10 | 42.57782 | -87.81243 | 7019 ft | 304 kts | 354° |
| 2026-04-24 03:11 | 42.59899 | -87.81384 | 7022 ft | 304 kts | 354° |
| 2026-04-24 03:11 | 42.61942 | -87.81909 | 7007 ft | 291 kts | 341° |
| 2026-04-24 03:11 | 42.63853 | -87.82562 | 6982 ft | 275 kts | 341° |
| 2026-04-24 03:11 | 42.65568 | -87.83356 | 6969 ft | 277 kts | 336° |
| 2026-04-24 03:12 | 42.67505 | -87.83985 | 7016 ft | 294 kts | 347° |
| 2026-04-24 03:12 | 42.69555 | -87.84370 | 7039 ft | 300 kts | 349° |
| 2026-04-24 03:12 | 42.71609 | -87.84754 | 7052 ft | 303 kts | 348° |
| 2026-04-24 03:12 | 42.73690 | -87.85178 | 7029 ft | 303 kts | 349° |
| 2026-04-24 03:13 | 42.75812 | -87.85076 | 7015 ft | 307 kts | 5° |
| 2026-04-24 03:13 | 42.77928 | -87.84675 | 7005 ft | 307 kts | 5° |
| 2026-04-24 03:13 | 42.80046 | -87.84284 | 7010 ft | 308 kts | 5° |
| 2026-04-24 03:13 | 42.82171 | -87.83895 | 7008 ft | 307 kts | 5° |
| 2026-04-24 03:14 | 42.84289 | -87.83498 | 7009 ft | 307 kts | 5° |
| 2026-04-24 03:14 | 42.86407 | -87.83108 | 7002 ft | 307 kts | 5° |
| 2026-04-24 03:14 | 42.88526 | -87.82717 | 7002 ft | 307 kts | 5° |
| 2026-04-24 03:14 | 42.90637 | -87.82327 | 6975 ft | 307 kts | 5° |
| 2026-04-24 03:15 | 42.92758 | -87.81939 | 6982 ft | 307 kts | 5° |
| 2026-04-24 03:15 | 42.94876 | -87.81542 | 6984 ft | 307 kts | 5° |
| 2026-04-24 03:15 | 42.97010 | -87.81149 | 6712 ft | 312 kts | 5° |
| 2026-04-24 03:15 | 42.99099 | -87.80761 | 6390 ft | 300 kts | 5° |
| 2026-04-24 03:16 | 43.01134 | -87.80377 | 6054 ft | 292 kts | 5° |
| 2026-04-24 03:16 | 43.03112 | -87.79993 | 5697 ft | 282 kts | 5° |
| 2026-04-24 03:16 | 43.05025 | -87.79615 | 5337 ft | 273 kts | 5° |
| 2026-04-24 03:16 | 43.06871 | -87.79262 | 4969 ft | 263 kts | 5° |
| 2026-04-24 03:17 | 43.08675 | -87.78922 | 4680 ft | 260 kts | 5° |
| 2026-04-24 03:17 | 43.10471 | -87.78586 | 4320 ft | 260 kts | 5° |
| 2026-04-24 03:17 | 43.12233 | -87.78776 | 3941 ft | 250 kts | 333° |
| 2026-04-24 03:17 | 43.13485 | -87.80134 | 3860 ft | 219 kts | 292° |
| 2026-04-24 03:18 | 43.13867 | -87.82046 | 3896 ft | 205 kts | 258° |
| 2026-04-24 03:18 | 43.13324 | -87.83748 | 3938 ft | 196 kts | 220° |
| 2026-04-24 03:18 | 43.12258 | -87.84905 | 3999 ft | 197 kts | 215° |
| 2026-04-24 03:18 | 43.11141 | -87.86050 | 3687 ft | 200 kts | 214° |
| 2026-04-24 03:19 | 43.09944 | -87.86923 | 3354 ft | 198 kts | 192° |
| 2026-04-24 03:19 | 43.08555 | -87.87065 | 3209 ft | 203 kts | 185° |
| 2026-04-24 03:19 | 43.07163 | -87.87245 | 3127 ft | 199 kts | 190° |
| 2026-04-24 03:19 | 43.05816 | -87.87558 | 3041 ft | 191 kts | 190° |
| 2026-04-24 03:20 | 43.04529 | -87.87806 | 2870 ft | 184 kts | 188° |
| 2026-04-24 03:20 | 43.03270 | -87.88019 | 2524 ft | 179 kts | 189° |
| 2026-04-24 03:20 | 43.02063 | -87.88238 | 2259 ft | 167 kts | 188° |
| 2026-04-24 03:20 | 43.00966 | -87.88385 | 1970 ft | 149 kts | 186° |
| 2026-04-24 03:21 | 42.99994 | -87.88577 | 1640 ft | 134 kts | 188° |
| 2026-04-24 03:21 | 42.99122 | -87.88791 | 1515 ft | 125 kts | 189° |
| 2026-04-24 03:21 | 42.98256 | -87.88882 | 1335 ft | 125 kts | 183° |
| 2026-04-24 03:21 | 42.97427 | -87.89018 | 1146 ft | 116 kts | 185° |
| 2026-04-24 03:22 | 42.96624 | -87.89152 | 965 ft | 115 kts | 185° |
| 2026-04-24 03:22 | 42.95812 | -87.89295 | 783 ft | 117 kts | 186° |
| 2026-04-24 03:22 | 42.95033 | -87.89428 | 681 ft | 103 kts | 186° |
| 2026-04-24 03:22 | 42.94416 | -87.89529 | 681 ft | 77 kts | 187° |
| 2026-04-24 03:23 | 42.93981 | -87.89606 | 686 ft | 54 kts | 188° |
| 2026-04-24 03:23 | 42.93658 | -87.89658 | 686 ft | 32 kts | 188° |
| 2026-04-24 03:23 | 42.93551 | -87.89787 | 686 ft | 16 kts | 277° |
| 2026-04-24 03:23 | 42.93594 | -87.89886 | 686 ft | 13 kts | 340° |
| 2026-04-24 03:24 | 42.93693 | -87.89890 | 686 ft | 16 kts | 0° |
| 2026-04-24 03:24 | 42.93821 | -87.89888 | 683 ft | 21 kts | 1° |
| 2026-04-24 03:24 | 42.93971 | -87.89885 | 686 ft | 23 kts | 1° |
| 2026-04-24 03:24 | 42.94132 | -87.89884 | 682 ft | 24 kts | 358° |
| 2026-04-24 03:25 | 42.94299 | -87.89923 | 682 ft | 25 kts | 350° |
| 2026-04-24 03:25 | 42.94432 | -87.89960 | 680 ft | 11 kts | 349° |
| 2026-04-24 03:25 | 42.94504 | -87.89964 | 682 ft | 11 kts | 22° |
| 2026-04-24 03:25 | 42.94550 | -87.89882 | 683 ft | 12 kts | 64° |
| 2026-04-24 03:26 | 42.94599 | -87.89779 | 686 ft | 14 kts | 51° |
| 2026-04-24 03:26 | 42.94690 | -87.89736 | 686 ft | 15 kts | 7° |
| 2026-04-24 03:26 | 42.94804 | -87.89715 | 683 ft | 18 kts | 8° |
| 2026-04-24 03:26 | 42.94926 | -87.89710 | 684 ft | 17 kts | 340° |
| 2026-04-24 03:27 | 42.95015 | -87.89800 | 684 ft | 16 kts | 338° |
| 2026-04-24 03:27 | 42.95104 | -87.89892 | 686 ft | 16 kts | 312° |
| 2026-04-24 03:27 | 42.95175 | -87.90001 | 686 ft | 14 kts | 312° |
| 2026-04-24 03:27 | 42.95209 | -87.90079 | 684 ft | 8 kts | 265° |
| 2026-04-24 03:28 | 42.95183 | -87.90134 | 684 ft | 6 kts | 221° |
| 2026-04-24 03:28 | 42.95151 | -87.90172 | 686 ft | 8 kts | 218° |
| 2026-04-24 03:28 | 42.95084 | -87.90220 | 686 ft | 12 kts | 199° |
| 2026-04-24 03:28 | 42.95020 | -87.90249 | 686 ft | 0 kts | 199° |
| 2026-04-24 03:29 | 42.95004 | -87.90255 | 686 ft | 4 kts | 186° |
| 2026-04-24 03:29 | 42.94984 | -87.90234 | 685 ft | 3 kts | 119° |
| 2026-04-24 03:30 | 42.94976 | -87.90213 | 686 ft | 2 kts | 120° |
| 2026-04-24 03:30 | 42.94974 | -87.90210 | 686 ft | 0 kts | 119° |